sensor_id;sensor_type;location;lat;lon;timestamp;P1;durP1;ratioP1;P2;durP2;ratioP2
4206;SDS011;2117;47.972;7.830;2023-03-21T00:01:54;4.83;;;2.33;;
4206;SDS011;2117;47.972;7.830;2023-03-21T00:04:21;4.70;;;2.30;;
4206;SDS011;2117;47.972;7.830;2023-03-21T00:06:48;3.30;;;2.07;;
4206;SDS011;2117;47.972;7.830;2023-03-21T00:09:13;5.20;;;2.13;;
4206;SDS011;2117;47.972;7.830;2023-03-21T00:11:39;4.60;;;2.13;;
4206;SDS011;2117;47.972;7.830;2023-03-21T00:14:05;6.23;;;3.43;;
4206;SDS011;2117;47.972;7.830;2023-03-21T00:16:32;2.93;;;1.77;;
4206;SDS011;2117;47.972;7.830;2023-03-21T00:19:00;3.00;;;2.10;;
4206;SDS011;2117;47.972;7.830;2023-03-21T00:21:27;3.07;;;1.90;;
4206;SDS011;2117;47.972;7.830;2023-03-21T00:23:56;4.10;;;1.70;;
4206;SDS011;2117;47.972;7.830;2023-03-21T00:26:23;4.80;;;2.00;;
4206;SDS011;2117;47.972;7.830;2023-03-21T00:28:49;4.20;;;1.60;;
4206;SDS011;2117;47.972;7.830;2023-03-21T00:31:15;3.23;;;1.70;;
4206;SDS011;2117;47.972;7.830;2023-03-21T00:33:41;2.70;;;1.70;;
4206;SDS011;2117;47.972;7.830;2023-03-21T00:36:07;10.83;;;1.70;;
4206;SDS011;2117;47.972;7.830;2023-03-21T00:38:34;3.13;;;1.60;;
4206;SDS011;2117;47.972;7.830;2023-03-21T00:41:04;1.73;;;1.27;;
4206;SDS011;2117;47.972;7.830;2023-03-21T00:43:31;2.33;;;1.57;;
4206;SDS011;2117;47.972;7.830;2023-03-21T00:45:57;2.73;;;1.40;;
4206;SDS011;2117;47.972;7.830;2023-03-21T00:48:23;2.17;;;1.20;;
4206;SDS011;2117;47.972;7.830;2023-03-21T00:50:50;3.30;;;1.73;;
4206;SDS011;2117;47.972;7.830;2023-03-21T00:53:17;2.20;;;1.73;;
4206;SDS011;2117;47.972;7.830;2023-03-21T00:55:42;3.80;;;1.63;;
4206;SDS011;2117;47.972;7.830;2023-03-21T00:58:08;2.70;;;1.10;;
4206;SDS011;2117;47.972;7.830;2023-03-21T01:00:34;1.87;;;1.40;;
4206;SDS011;2117;47.972;7.830;2023-03-21T01:03:03;2.90;;;1.53;;
4206;SDS011;2117;47.972;7.830;2023-03-21T01:05:42;2.03;;;1.50;;
4206;SDS011;2117;47.972;7.830;2023-03-21T01:08:29;2.57;;;1.43;;
4206;SDS011;2117;47.972;7.830;2023-03-21T01:10:56;2.90;;;1.43;;
4206;SDS011;2117;47.972;7.830;2023-03-21T01:13:26;5.10;;;3.60;;
4206;SDS011;2117;47.972;7.830;2023-03-21T01:15:53;3.30;;;1.37;;
4206;SDS011;2117;47.972;7.830;2023-03-21T01:18:20;2.10;;;1.23;;
4206;SDS011;2117;47.972;7.830;2023-03-21T01:20:49;2.87;;;1.43;;
4206;SDS011;2117;47.972;7.830;2023-03-21T01:23:15;2.20;;;1.43;;
4206;SDS011;2117;47.972;7.830;2023-03-21T01:25:41;3.90;;;1.30;;
4206;SDS011;2117;47.972;7.830;2023-03-21T01:28:07;2.60;;;1.43;;
4206;SDS011;2117;47.972;7.830;2023-03-21T01:30:34;3.63;;;1.40;;
4206;SDS011;2117;47.972;7.830;2023-03-21T01:33:00;2.60;;;1.40;;
4206;SDS011;2117;47.972;7.830;2023-03-21T01:35:26;1.93;;;1.13;;
4206;SDS011;2117;47.972;7.830;2023-03-21T01:37:51;3.27;;;1.27;;
4206;SDS011;2117;47.972;7.830;2023-03-21T01:40:18;2.37;;;1.17;;
4206;SDS011;2117;47.972;7.830;2023-03-21T01:42:49;4.03;;;1.20;;
4206;SDS011;2117;47.972;7.830;2023-03-21T01:48:18;2.50;;;1.37;;
4206;SDS011;2117;47.972;7.830;2023-03-21T01:50:45;2.43;;;1.20;;
4206;SDS011;2117;47.972;7.830;2023-03-21T01:53:11;2.20;;;1.30;;
4206;SDS011;2117;47.972;7.830;2023-03-21T01:55:39;3.23;;;1.20;;
4206;SDS011;2117;47.972;7.830;2023-03-21T01:58:05;5.10;;;1.20;;
4206;SDS011;2117;47.972;7.830;2023-03-21T02:00:33;2.43;;;1.20;;
4206;SDS011;2117;47.972;7.830;2023-03-21T02:03:01;4.03;;;1.50;;
4206;SDS011;2117;47.972;7.830;2023-03-21T02:08:16;1.70;;;1.30;;
4206;SDS011;2117;47.972;7.830;2023-03-21T02:10:42;2.67;;;1.40;;
4206;SDS011;2117;47.972;7.830;2023-03-21T02:13:11;2.27;;;1.10;;
4206;SDS011;2117;47.972;7.830;2023-03-21T02:15:37;1.93;;;1.20;;
4206;SDS011;2117;47.972;7.830;2023-03-21T02:18:13;3.63;;;1.80;;
4206;SDS011;2117;47.972;7.830;2023-03-21T02:23:45;2.33;;;1.30;;
4206;SDS011;2117;47.972;7.830;2023-03-21T02:35:09;3.50;;;1.40;;
4206;SDS011;2117;47.972;7.830;2023-03-21T02:37:47;2.50;;;1.60;;
4206;SDS011;2117;47.972;7.830;2023-03-21T02:40:31;5.60;;;1.70;;
4206;SDS011;2117;47.972;7.830;2023-03-21T02:43:11;2.53;;;1.40;;
4206;SDS011;2117;47.972;7.830;2023-03-21T02:46:39;3.07;;;1.80;;
4206;SDS011;2117;47.972;7.830;2023-03-21T02:51:40;3.10;;;1.80;;
4206;SDS011;2117;47.972;7.830;2023-03-21T02:54:11;2.90;;;2.20;;
4206;SDS011;2117;47.972;7.830;2023-03-21T02:56:39;3.40;;;2.10;;
4206;SDS011;2117;47.972;7.830;2023-03-21T02:59:06;2.93;;;1.67;;
4206;SDS011;2117;47.972;7.830;2023-03-21T03:01:33;2.33;;;1.80;;
4206;SDS011;2117;47.972;7.830;2023-03-21T03:03:59;2.60;;;1.83;;
4206;SDS011;2117;47.972;7.830;2023-03-21T03:06:40;3.30;;;1.97;;
4206;SDS011;2117;47.972;7.830;2023-03-21T03:12:32;2.97;;;1.53;;
4206;SDS011;2117;47.972;7.830;2023-03-21T03:15:12;3.00;;;1.93;;
4206;SDS011;2117;47.972;7.830;2023-03-21T03:26:04;3.83;;;1.97;;
4206;SDS011;2117;47.972;7.830;2023-03-21T03:28:44;3.30;;;1.87;;
4206;SDS011;2117;47.972;7.830;2023-03-21T03:31:15;3.63;;;2.00;;
4206;SDS011;2117;47.972;7.830;2023-03-21T03:33:45;3.30;;;2.30;;
4206;SDS011;2117;47.972;7.830;2023-03-21T03:36:16;2.50;;;2.10;;
4206;SDS011;2117;47.972;7.830;2023-03-21T03:38:44;5.73;;;2.10;;
4206;SDS011;2117;47.972;7.830;2023-03-21T03:41:14;3.47;;;2.10;;
4206;SDS011;2117;47.972;7.830;2023-03-21T03:43:45;4.00;;;2.50;;
4206;SDS011;2117;47.972;7.830;2023-03-21T03:52:17;4.80;;;3.13;;
4206;SDS011;2117;47.972;7.830;2023-03-21T03:54:48;3.10;;;1.90;;
4206;SDS011;2117;47.972;7.830;2023-03-21T03:57:16;4.37;;;2.30;;
4206;SDS011;2117;47.972;7.830;2023-03-21T03:59:43;5.80;;;1.97;;
4206;SDS011;2117;47.972;7.830;2023-03-21T04:02:10;2.00;;;1.50;;
4206;SDS011;2117;47.972;7.830;2023-03-21T04:04:36;2.80;;;1.73;;
4206;SDS011;2117;47.972;7.830;2023-03-21T04:07:02;3.07;;;1.90;;
4206;SDS011;2117;47.972;7.830;2023-03-21T04:09:28;4.97;;;1.83;;
4206;SDS011;2117;47.972;7.830;2023-03-21T04:11:54;4.37;;;1.90;;
4206;SDS011;2117;47.972;7.830;2023-03-21T04:14:21;5.63;;;2.40;;
4206;SDS011;2117;47.972;7.830;2023-03-21T04:16:47;3.77;;;2.07;;
4206;SDS011;2117;47.972;7.830;2023-03-21T04:19:13;3.20;;;1.90;;
4206;SDS011;2117;47.972;7.830;2023-03-21T04:24:08;4.27;;;2.20;;
4206;SDS011;2117;47.972;7.830;2023-03-21T04:26:36;2.87;;;1.90;;
4206;SDS011;2117;47.972;7.830;2023-03-21T04:29:02;3.37;;;2.00;;
4206;SDS011;2117;47.972;7.830;2023-03-21T04:31:28;2.70;;;2.00;;
4206;SDS011;2117;47.972;7.830;2023-03-21T04:33:59;2.43;;;1.63;;
4206;SDS011;2117;47.972;7.830;2023-03-21T04:36:26;3.03;;;1.70;;
4206;SDS011;2117;47.972;7.830;2023-03-21T04:38:57;2.17;;;1.37;;
4206;SDS011;2117;47.972;7.830;2023-03-21T04:41:26;2.63;;;1.63;;
4206;SDS011;2117;47.972;7.830;2023-03-21T04:43:52;3.60;;;1.67;;
4206;SDS011;2117;47.972;7.830;2023-03-21T04:46:18;2.50;;;1.77;;
4206;SDS011;2117;47.972;7.830;2023-03-21T04:48:44;2.00;;;1.37;;
4206;SDS011;2117;47.972;7.830;2023-03-21T04:51:11;2.30;;;1.30;;
4206;SDS011;2117;47.972;7.830;2023-03-21T04:53:36;3.97;;;1.60;;
4206;SDS011;2117;47.972;7.830;2023-03-21T04:56:03;3.20;;;1.60;;
4206;SDS011;2117;47.972;7.830;2023-03-21T04:58:30;3.50;;;1.80;;
4206;SDS011;2117;47.972;7.830;2023-03-21T05:00:56;2.60;;;1.50;;
4206;SDS011;2117;47.972;7.830;2023-03-21T05:03:22;3.90;;;1.60;;
4206;SDS011;2117;47.972;7.830;2023-03-21T05:05:48;4.10;;;1.67;;
4206;SDS011;2117;47.972;7.830;2023-03-21T05:08:14;2.23;;;1.60;;
4206;SDS011;2117;47.972;7.830;2023-03-21T05:10:40;3.23;;;1.97;;
4206;SDS011;2117;47.972;7.830;2023-03-21T05:13:06;2.30;;;1.50;;
4206;SDS011;2117;47.972;7.830;2023-03-21T05:15:32;2.37;;;1.20;;
4206;SDS011;2117;47.972;7.830;2023-03-21T05:17:57;8.13;;;1.97;;
4206;SDS011;2117;47.972;7.830;2023-03-21T05:20:24;4.60;;;2.43;;
4206;SDS011;2117;47.972;7.830;2023-03-21T05:22:49;3.20;;;1.77;;
4206;SDS011;2117;47.972;7.830;2023-03-21T05:25:16;6.23;;;2.07;;
4206;SDS011;2117;47.972;7.830;2023-03-21T05:27:45;5.10;;;1.47;;
4206;SDS011;2117;47.972;7.830;2023-03-21T05:30:18;3.03;;;1.67;;
4206;SDS011;2117;47.972;7.830;2023-03-21T05:32:44;3.30;;;1.37;;
4206;SDS011;2117;47.972;7.830;2023-03-21T05:35:10;2.20;;;1.40;;
4206;SDS011;2117;47.972;7.830;2023-03-21T05:37:36;3.50;;;2.17;;
4206;SDS011;2117;47.972;7.830;2023-03-21T05:40:02;5.03;;;1.43;;
4206;SDS011;2117;47.972;7.830;2023-03-21T05:42:30;3.97;;;2.07;;
4206;SDS011;2117;47.972;7.830;2023-03-21T05:44:56;2.87;;;2.13;;
4206;SDS011;2117;47.972;7.830;2023-03-21T05:47:22;3.87;;;2.10;;
4206;SDS011;2117;47.972;7.830;2023-03-21T05:49:47;3.37;;;2.13;;
4206;SDS011;2117;47.972;7.830;2023-03-21T05:52:13;3.30;;;1.93;;
4206;SDS011;2117;47.972;7.830;2023-03-21T05:54:39;3.27;;;2.03;;
4206;SDS011;2117;47.972;7.830;2023-03-21T05:57:05;7.77;;;2.10;;
4206;SDS011;2117;47.972;7.830;2023-03-21T05:59:31;3.87;;;1.93;;
4206;SDS011;2117;47.972;7.830;2023-03-21T06:01:56;4.20;;;2.50;;
4206;SDS011;2117;47.972;7.830;2023-03-21T06:04:22;5.00;;;1.70;;
4206;SDS011;2117;47.972;7.830;2023-03-21T06:06:48;6.73;;;2.50;;
4206;SDS011;2117;47.972;7.830;2023-03-21T06:09:14;3.40;;;2.20;;
4206;SDS011;2117;47.972;7.830;2023-03-21T06:11:42;4.77;;;2.90;;
4206;SDS011;2117;47.972;7.830;2023-03-21T06:14:11;7.77;;;2.27;;
4206;SDS011;2117;47.972;7.830;2023-03-21T06:16:36;9.30;;;2.97;;
4206;SDS011;2117;47.972;7.830;2023-03-21T06:19:02;7.10;;;3.20;;
4206;SDS011;2117;47.972;7.830;2023-03-21T06:21:27;5.50;;;3.40;;
4206;SDS011;2117;47.972;7.830;2023-03-21T06:23:53;4.50;;;3.33;;
4206;SDS011;2117;47.972;7.830;2023-03-21T06:26:18;5.43;;;4.00;;
4206;SDS011;2117;47.972;7.830;2023-03-21T06:28:47;5.13;;;3.63;;
4206;SDS011;2117;47.972;7.830;2023-03-21T06:31:13;7.17;;;4.70;;
4206;SDS011;2117;47.972;7.830;2023-03-21T06:33:39;8.10;;;4.60;;
4206;SDS011;2117;47.972;7.830;2023-03-21T06:36:05;7.17;;;3.90;;
4206;SDS011;2117;47.972;7.830;2023-03-21T06:38:31;6.30;;;4.17;;
4206;SDS011;2117;47.972;7.830;2023-03-21T06:40:56;7.60;;;4.23;;
4206;SDS011;2117;47.972;7.830;2023-03-21T06:43:22;5.60;;;3.60;;
4206;SDS011;2117;47.972;7.830;2023-03-21T06:45:48;8.07;;;4.03;;
4206;SDS011;2117;47.972;7.830;2023-03-21T06:48:14;8.03;;;3.87;;
4206;SDS011;2117;47.972;7.830;2023-03-21T06:50:39;7.43;;;5.10;;
4206;SDS011;2117;47.972;7.830;2023-03-21T06:53:05;8.17;;;5.07;;
4206;SDS011;2117;47.972;7.830;2023-03-21T06:55:30;8.70;;;4.50;;
4206;SDS011;2117;47.972;7.830;2023-03-21T06:57:56;5.60;;;4.10;;
4206;SDS011;2117;47.972;7.830;2023-03-21T07:00:22;4.53;;;3.23;;
4206;SDS011;2117;47.972;7.830;2023-03-21T07:02:48;6.27;;;4.07;;
4206;SDS011;2117;47.972;7.830;2023-03-21T07:05:14;5.90;;;3.50;;
4206;SDS011;2117;47.972;7.830;2023-03-21T07:07:40;5.50;;;3.57;;
4206;SDS011;2117;47.972;7.830;2023-03-21T07:10:06;4.23;;;2.63;;
4206;SDS011;2117;47.972;7.830;2023-03-21T07:12:32;3.80;;;2.80;;
4206;SDS011;2117;47.972;7.830;2023-03-21T07:14:59;5.20;;;2.53;;
4206;SDS011;2117;47.972;7.830;2023-03-21T07:17:25;4.60;;;2.70;;
4206;SDS011;2117;47.972;7.830;2023-03-21T07:19:51;4.30;;;2.20;;
4206;SDS011;2117;47.972;7.830;2023-03-21T07:22:17;9.33;;;3.13;;
4206;SDS011;2117;47.972;7.830;2023-03-21T07:24:42;5.10;;;3.23;;
4206;SDS011;2117;47.972;7.830;2023-03-21T07:27:12;6.03;;;2.57;;
4206;SDS011;2117;47.972;7.830;2023-03-21T07:29:41;5.00;;;1.93;;
4206;SDS011;2117;47.972;7.830;2023-03-21T07:32:08;3.40;;;2.70;;
4206;SDS011;2117;47.972;7.830;2023-03-21T07:34:34;3.70;;;2.53;;
4206;SDS011;2117;47.972;7.830;2023-03-21T07:37:00;3.60;;;2.50;;
4206;SDS011;2117;47.972;7.830;2023-03-21T07:39:26;5.53;;;2.67;;
4206;SDS011;2117;47.972;7.830;2023-03-21T07:41:52;4.93;;;2.40;;
4206;SDS011;2117;47.972;7.830;2023-03-21T07:44:21;3.10;;;2.20;;
4206;SDS011;2117;47.972;7.830;2023-03-21T07:46:47;4.43;;;2.63;;
4206;SDS011;2117;47.972;7.830;2023-03-21T07:49:12;11.70;;;3.70;;
4206;SDS011;2117;47.972;7.830;2023-03-21T07:51:38;29.83;;;4.10;;
4206;SDS011;2117;47.972;7.830;2023-03-21T07:54:04;12.63;;;4.73;;
4206;SDS011;2117;47.972;7.830;2023-03-21T07:56:30;10.83;;;4.47;;
4206;SDS011;2117;47.972;7.830;2023-03-21T07:58:56;11.30;;;3.47;;
4206;SDS011;2117;47.972;7.830;2023-03-21T08:01:23;7.70;;;3.60;;
4206;SDS011;2117;47.972;7.830;2023-03-21T08:03:49;8.43;;;3.47;;
4206;SDS011;2117;47.972;7.830;2023-03-21T08:06:17;3.83;;;2.80;;
4206;SDS011;2117;47.972;7.830;2023-03-21T08:08:46;5.37;;;2.83;;
4206;SDS011;2117;47.972;7.830;2023-03-21T08:11:12;2.60;;;1.97;;
4206;SDS011;2117;47.972;7.830;2023-03-21T08:13:38;3.40;;;2.60;;
4206;SDS011;2117;47.972;7.830;2023-03-21T08:16:04;3.73;;;2.40;;
4206;SDS011;2117;47.972;7.830;2023-03-21T08:18:30;7.10;;;2.40;;
4206;SDS011;2117;47.972;7.830;2023-03-21T08:20:56;10.40;;;3.13;;
4206;SDS011;2117;47.972;7.830;2023-03-21T08:23:22;5.93;;;3.30;;
4206;SDS011;2117;47.972;7.830;2023-03-21T08:25:54;5.50;;;3.77;;
4206;SDS011;2117;47.972;7.830;2023-03-21T08:28:21;4.43;;;3.07;;
4206;SDS011;2117;47.972;7.830;2023-03-21T08:30:47;9.47;;;3.37;;
4206;SDS011;2117;47.972;7.830;2023-03-21T08:33:13;4.67;;;3.40;;
4206;SDS011;2117;47.972;7.830;2023-03-21T08:35:39;4.80;;;3.40;;
4206;SDS011;2117;47.972;7.830;2023-03-21T08:38:05;6.37;;;3.63;;
4206;SDS011;2117;47.972;7.830;2023-03-21T08:40:31;9.13;;;3.47;;
4206;SDS011;2117;47.972;7.830;2023-03-21T08:42:58;6.67;;;3.83;;
4206;SDS011;2117;47.972;7.830;2023-03-21T08:45:24;4.87;;;4.10;;
4206;SDS011;2117;47.972;7.830;2023-03-21T08:47:50;8.10;;;3.60;;
4206;SDS011;2117;47.972;7.830;2023-03-21T08:50:17;5.53;;;3.90;;
4206;SDS011;2117;47.972;7.830;2023-03-21T08:52:45;4.70;;;3.80;;
4206;SDS011;2117;47.972;7.830;2023-03-21T08:55:11;5.13;;;3.57;;
4206;SDS011;2117;47.972;7.830;2023-03-21T08:57:38;6.93;;;3.60;;
4206;SDS011;2117;47.972;7.830;2023-03-21T09:00:04;6.00;;;4.17;;
4206;SDS011;2117;47.972;7.830;2023-03-21T09:02:37;4.40;;;3.23;;
4206;SDS011;2117;47.972;7.830;2023-03-21T09:05:03;12.77;;;3.97;;
4206;SDS011;2117;47.972;7.830;2023-03-21T09:07:29;4.93;;;2.93;;
4206;SDS011;2117;47.972;7.830;2023-03-21T09:09:57;7.10;;;4.13;;
4206;SDS011;2117;47.972;7.830;2023-03-21T09:12:24;6.23;;;4.17;;
4206;SDS011;2117;47.972;7.830;2023-03-21T09:14:50;6.80;;;4.10;;
4206;SDS011;2117;47.972;7.830;2023-03-21T09:17:17;4.87;;;3.40;;
4206;SDS011;2117;47.972;7.830;2023-03-21T09:19:44;5.17;;;3.73;;
4206;SDS011;2117;47.972;7.830;2023-03-21T09:22:11;4.70;;;3.33;;
4206;SDS011;2117;47.972;7.830;2023-03-21T09:24:38;4.93;;;3.50;;
4206;SDS011;2117;47.972;7.830;2023-03-21T09:27:06;4.50;;;3.13;;
4206;SDS011;2117;47.972;7.830;2023-03-21T09:29:31;5.87;;;3.37;;
4206;SDS011;2117;47.972;7.830;2023-03-21T09:31:57;7.90;;;4.40;;
4206;SDS011;2117;47.972;7.830;2023-03-21T09:34:24;5.53;;;3.67;;
4206;SDS011;2117;47.972;7.830;2023-03-21T09:36:50;5.63;;;3.33;;
4206;SDS011;2117;47.972;7.830;2023-03-21T09:39:18;5.17;;;3.30;;
4206;SDS011;2117;47.972;7.830;2023-03-21T09:44:44;7.43;;;4.10;;
4206;SDS011;2117;47.972;7.830;2023-03-21T09:47:21;4.97;;;3.10;;
4206;SDS011;2117;47.972;7.830;2023-03-21T09:50:13;6.70;;;3.30;;
4206;SDS011;2117;47.972;7.830;2023-03-21T09:55:16;6.80;;;3.43;;
4206;SDS011;2117;47.972;7.830;2023-03-21T09:57:55;4.00;;;3.23;;
4206;SDS011;2117;47.972;7.830;2023-03-21T10:00:32;8.40;;;3.20;;
4206;SDS011;2117;47.972;7.830;2023-03-21T10:03:05;5.53;;;3.03;;
4206;SDS011;2117;47.972;7.830;2023-03-21T10:05:39;4.77;;;3.60;;
4206;SDS011;2117;47.972;7.830;2023-03-21T10:08:12;12.23;;;3.70;;
4206;SDS011;2117;47.972;7.830;2023-03-21T10:10:47;5.40;;;2.80;;
4206;SDS011;2117;47.972;7.830;2023-03-21T10:13:21;4.87;;;3.10;;
4206;SDS011;2117;47.972;7.830;2023-03-21T10:15:49;4.90;;;3.43;;
4206;SDS011;2117;47.972;7.830;2023-03-21T10:18:20;5.20;;;3.20;;
4206;SDS011;2117;47.972;7.830;2023-03-21T10:20:49;3.50;;;2.93;;
4206;SDS011;2117;47.972;7.830;2023-03-21T10:23:16;5.40;;;3.20;;
4206;SDS011;2117;47.972;7.830;2023-03-21T10:25:48;6.43;;;3.17;;
4206;SDS011;2117;47.972;7.830;2023-03-21T10:28:24;7.80;;;2.80;;
4206;SDS011;2117;47.972;7.830;2023-03-21T10:30:53;5.33;;;2.70;;
4206;SDS011;2117;47.972;7.830;2023-03-21T10:33:23;6.80;;;3.30;;
4206;SDS011;2117;47.972;7.830;2023-03-21T10:35:52;4.47;;;3.13;;
4206;SDS011;2117;47.972;7.830;2023-03-21T10:38:22;4.47;;;2.97;;
4206;SDS011;2117;47.972;7.830;2023-03-21T10:40:49;9.40;;;3.20;;
4206;SDS011;2117;47.972;7.830;2023-03-21T10:45:50;4.50;;;2.80;;
4206;SDS011;2117;47.972;7.830;2023-03-21T10:48:16;4.40;;;3.33;;
4206;SDS011;2117;47.972;7.830;2023-03-21T10:50:43;3.57;;;2.43;;
4206;SDS011;2117;47.972;7.830;2023-03-21T10:53:28;7.47;;;3.27;;
4206;SDS011;2117;47.972;7.830;2023-03-21T10:55:58;3.80;;;3.00;;
4206;SDS011;2117;47.972;7.830;2023-03-21T10:58:26;6.67;;;3.07;;
4206;SDS011;2117;47.972;7.830;2023-03-21T11:00:59;5.50;;;3.60;;
4206;SDS011;2117;47.972;7.830;2023-03-21T11:03:28;6.93;;;3.00;;
4206;SDS011;2117;47.972;7.830;2023-03-21T11:05:55;6.27;;;3.37;;
4206;SDS011;2117;47.972;7.830;2023-03-21T11:08:28;5.57;;;3.40;;
4206;SDS011;2117;47.972;7.830;2023-03-21T11:10:59;4.27;;;2.33;;
4206;SDS011;2117;47.972;7.830;2023-03-21T11:13:35;5.90;;;3.10;;
4206;SDS011;2117;47.972;7.830;2023-03-21T11:18:49;3.80;;;3.20;;
4206;SDS011;2117;47.972;7.830;2023-03-21T11:21:16;6.17;;;3.17;;
4206;SDS011;2117;47.972;7.830;2023-03-21T11:23:47;6.50;;;3.70;;
4206;SDS011;2117;47.972;7.830;2023-03-21T11:26:26;3.83;;;2.70;;
4206;SDS011;2117;47.972;7.830;2023-03-21T11:28:56;4.50;;;3.13;;
4206;SDS011;2117;47.972;7.830;2023-03-21T11:31:22;5.93;;;3.20;;
4206;SDS011;2117;47.972;7.830;2023-03-21T11:34:04;4.80;;;2.90;;
4206;SDS011;2117;47.972;7.830;2023-03-21T11:36:35;3.97;;;2.43;;
4206;SDS011;2117;47.972;7.830;2023-03-21T11:39:13;5.33;;;3.47;;
4206;SDS011;2117;47.972;7.830;2023-03-21T11:41:50;3.27;;;2.43;;
4206;SDS011;2117;47.972;7.830;2023-03-21T11:44:24;6.77;;;2.83;;
4206;SDS011;2117;47.972;7.830;2023-03-21T11:46:52;5.40;;;2.87;;
4206;SDS011;2117;47.972;7.830;2023-03-21T11:49:18;7.90;;;2.60;;
4206;SDS011;2117;47.972;7.830;2023-03-21T11:54:19;3.97;;;2.80;;
4206;SDS011;2117;47.972;7.830;2023-03-21T11:56:51;3.70;;;2.70;;
4206;SDS011;2117;47.972;7.830;2023-03-21T12:05:07;3.83;;;2.73;;
4206;SDS011;2117;47.972;7.830;2023-03-21T12:07:47;5.50;;;3.40;;
4206;SDS011;2117;47.972;7.830;2023-03-21T12:16:14;3.83;;;2.90;;
4206;SDS011;2117;47.972;7.830;2023-03-21T12:25:20;3.57;;;2.00;;
4206;SDS011;2117;47.972;7.830;2023-03-21T12:28:01;2.97;;;1.90;;
4206;SDS011;2117;47.972;7.830;2023-03-21T12:31:06;3.80;;;2.20;;
4206;SDS011;2117;47.972;7.830;2023-03-21T12:33:49;2.40;;;1.50;;
4206;SDS011;2117;47.972;7.830;2023-03-21T12:39:01;3.17;;;1.50;;
4206;SDS011;2117;47.972;7.830;2023-03-21T12:41:43;3.30;;;1.10;;
4206;SDS011;2117;47.972;7.830;2023-03-21T12:44:19;3.00;;;1.20;;
4206;SDS011;2117;47.972;7.830;2023-03-21T12:49:34;1.60;;;0.80;;
4206;SDS011;2117;47.972;7.830;2023-03-21T12:52:10;2.00;;;0.80;;
4206;SDS011;2117;47.972;7.830;2023-03-21T12:54:41;1.50;;;0.70;;
4206;SDS011;2117;47.972;7.830;2023-03-21T12:59:54;2.90;;;0.90;;
4206;SDS011;2117;47.972;7.830;2023-03-21T13:02:43;1.30;;;0.60;;
4206;SDS011;2117;47.972;7.830;2023-03-21T13:05:37;2.47;;;1.00;;
4206;SDS011;2117;47.972;7.830;2023-03-21T13:08:21;1.43;;;0.70;;
4206;SDS011;2117;47.972;7.830;2023-03-21T13:11:01;2.23;;;0.80;;
4206;SDS011;2117;47.972;7.830;2023-03-21T13:16:05;1.43;;;0.70;;
4206;SDS011;2117;47.972;7.830;2023-03-21T13:24:48;1.90;;;1.00;;
4206;SDS011;2117;47.972;7.830;2023-03-21T13:29:49;3.30;;;1.10;;
4206;SDS011;2117;47.972;7.830;2023-03-21T13:34:55;3.43;;;0.70;;
4206;SDS011;2117;47.972;7.830;2023-03-21T13:37:32;1.80;;;0.90;;
4206;SDS011;2117;47.972;7.830;2023-03-21T13:40:02;6.07;;;1.20;;
4206;SDS011;2117;47.972;7.830;2023-03-21T13:42:44;1.60;;;0.70;;
4206;SDS011;2117;47.972;7.830;2023-03-21T13:45:22;3.13;;;1.20;;
4206;SDS011;2117;47.972;7.830;2023-03-21T13:48:00;2.53;;;0.80;;
4206;SDS011;2117;47.972;7.830;2023-03-21T13:50:32;2.50;;;0.80;;
4206;SDS011;2117;47.972;7.830;2023-03-21T13:53:19;2.83;;;1.03;;
4206;SDS011;2117;47.972;7.830;2023-03-21T13:55:49;2.23;;;0.90;;
4206;SDS011;2117;47.972;7.830;2023-03-21T13:58:49;1.47;;;0.80;;
4206;SDS011;2117;47.972;7.830;2023-03-21T14:01:21;2.37;;;1.10;;
4206;SDS011;2117;47.972;7.830;2023-03-21T14:04:06;2.30;;;1.10;;
4206;SDS011;2117;47.972;7.830;2023-03-21T14:06:37;1.60;;;1.10;;
4206;SDS011;2117;47.972;7.830;2023-03-21T14:09:36;2.83;;;0.93;;
4206;SDS011;2117;47.972;7.830;2023-03-21T14:12:00;2.90;;;1.20;;
4206;SDS011;2117;47.972;7.830;2023-03-21T14:14:36;3.00;;;1.20;;
4206;SDS011;2117;47.972;7.830;2023-03-21T14:17:12;5.50;;;1.30;;
4206;SDS011;2117;47.972;7.830;2023-03-21T14:19:52;2.13;;;1.00;;
4206;SDS011;2117;47.972;7.830;2023-03-21T14:22:19;2.27;;;1.33;;
4206;SDS011;2117;47.972;7.830;2023-03-21T14:24:53;2.03;;;1.30;;
4206;SDS011;2117;47.972;7.830;2023-03-21T14:27:19;1.80;;;1.10;;
4206;SDS011;2117;47.972;7.830;2023-03-21T14:29:46;2.20;;;1.20;;
4206;SDS011;2117;47.972;7.830;2023-03-21T14:32:20;1.80;;;1.30;;
4206;SDS011;2117;47.972;7.830;2023-03-21T14:34:48;2.07;;;1.30;;
4206;SDS011;2117;47.972;7.830;2023-03-21T14:37:25;2.77;;;1.33;;
4206;SDS011;2117;47.972;7.830;2023-03-21T14:40:19;3.07;;;1.30;;
4206;SDS011;2117;47.972;7.830;2023-03-21T14:42:48;2.70;;;1.07;;
4206;SDS011;2117;47.972;7.830;2023-03-21T14:53:29;4.13;;;1.50;;
4206;SDS011;2117;47.972;7.830;2023-03-21T14:56:08;3.40;;;1.50;;
4206;SDS011;2117;47.972;7.830;2023-03-21T14:58:41;2.67;;;1.73;;
4206;SDS011;2117;47.972;7.830;2023-03-21T15:01:13;2.50;;;1.40;;
4206;SDS011;2117;47.972;7.830;2023-03-21T15:03:45;2.93;;;1.50;;
4206;SDS011;2117;47.972;7.830;2023-03-21T15:06:14;2.60;;;1.20;;
4206;SDS011;2117;47.972;7.830;2023-03-21T15:08:51;2.90;;;1.50;;
4206;SDS011;2117;47.972;7.830;2023-03-21T15:11:19;2.73;;;1.60;;
4206;SDS011;2117;47.972;7.830;2023-03-21T15:13:53;2.77;;;1.60;;
4206;SDS011;2117;47.972;7.830;2023-03-21T15:16:20;4.63;;;2.23;;
4206;SDS011;2117;47.972;7.830;2023-03-21T15:18:46;3.00;;;1.30;;
4206;SDS011;2117;47.972;7.830;2023-03-21T15:21:15;3.13;;;1.30;;
4206;SDS011;2117;47.972;7.830;2023-03-21T15:23:46;2.90;;;1.47;;
4206;SDS011;2117;47.972;7.830;2023-03-21T15:26:15;3.50;;;1.23;;
4206;SDS011;2117;47.972;7.830;2023-03-21T15:28:47;2.43;;;1.30;;
4206;SDS011;2117;47.972;7.830;2023-03-21T15:31:20;2.77;;;1.50;;
4206;SDS011;2117;47.972;7.830;2023-03-21T15:33:47;2.60;;;1.33;;
4206;SDS011;2117;47.972;7.830;2023-03-21T15:36:21;6.87;;;1.60;;
4206;SDS011;2117;47.972;7.830;2023-03-21T15:38:51;1.50;;;1.00;;
4206;SDS011;2117;47.972;7.830;2023-03-21T15:43:48;2.13;;;1.50;;
4206;SDS011;2117;47.972;7.830;2023-03-21T15:51:36;2.97;;;1.90;;
4206;SDS011;2117;47.972;7.830;2023-03-21T15:54:03;3.03;;;2.17;;
4206;SDS011;2117;47.972;7.830;2023-03-21T15:56:31;3.20;;;1.90;;
4206;SDS011;2117;47.972;7.830;2023-03-21T15:59:00;2.33;;;1.53;;
4206;SDS011;2117;47.972;7.830;2023-03-21T16:01:29;3.57;;;1.70;;
4206;SDS011;2117;47.972;7.830;2023-03-21T16:04:04;3.20;;;1.73;;
4206;SDS011;2117;47.972;7.830;2023-03-21T16:06:33;4.60;;;1.63;;
4206;SDS011;2117;47.972;7.830;2023-03-21T16:09:08;3.40;;;1.50;;
4206;SDS011;2117;47.972;7.830;2023-03-21T16:11:41;2.40;;;1.47;;
4206;SDS011;2117;47.972;7.830;2023-03-21T16:14:12;2.97;;;1.47;;
4206;SDS011;2117;47.972;7.830;2023-03-21T16:16:37;3.70;;;1.27;;
4206;SDS011;2117;47.972;7.830;2023-03-21T16:19:03;2.37;;;1.00;;
4206;SDS011;2117;47.972;7.830;2023-03-21T16:21:31;3.03;;;1.70;;
4206;SDS011;2117;47.972;7.830;2023-03-21T16:23:58;2.10;;;1.40;;
4206;SDS011;2117;47.972;7.830;2023-03-21T16:26:27;3.97;;;1.50;;
4206;SDS011;2117;47.972;7.830;2023-03-21T16:28:55;1.90;;;1.00;;
4206;SDS011;2117;47.972;7.830;2023-03-21T16:31:22;1.70;;;1.03;;
4206;SDS011;2117;47.972;7.830;2023-03-21T16:33:51;3.07;;;1.00;;
4206;SDS011;2117;47.972;7.830;2023-03-21T16:38:44;5.40;;;1.40;;
4206;SDS011;2117;47.972;7.830;2023-03-21T16:41:11;2.10;;;1.27;;
4206;SDS011;2117;47.972;7.830;2023-03-21T16:43:38;2.53;;;1.20;;
4206;SDS011;2117;47.972;7.830;2023-03-21T16:46:17;2.20;;;1.10;;
4206;SDS011;2117;47.972;7.830;2023-03-21T16:48:45;2.53;;;1.40;;
4206;SDS011;2117;47.972;7.830;2023-03-21T16:51:16;4.60;;;1.43;;
4206;SDS011;2117;47.972;7.830;2023-03-21T16:53:44;4.97;;;1.00;;
4206;SDS011;2117;47.972;7.830;2023-03-21T16:56:14;1.97;;;1.10;;
4206;SDS011;2117;47.972;7.830;2023-03-21T16:58:42;2.90;;;1.80;;
4206;SDS011;2117;47.972;7.830;2023-03-21T17:01:12;1.90;;;1.20;;
4206;SDS011;2117;47.972;7.830;2023-03-21T17:03:46;4.27;;;1.43;;
4206;SDS011;2117;47.972;7.830;2023-03-21T17:06:13;2.70;;;1.33;;
4206;SDS011;2117;47.972;7.830;2023-03-21T17:08:43;4.20;;;1.10;;
4206;SDS011;2117;47.972;7.830;2023-03-21T17:11:11;2.57;;;1.33;;
4206;SDS011;2117;47.972;7.830;2023-03-21T17:13:40;2.97;;;1.53;;
4206;SDS011;2117;47.972;7.830;2023-03-21T17:16:12;5.70;;;1.63;;
4206;SDS011;2117;47.972;7.830;2023-03-21T17:18:38;2.10;;;1.53;;
4206;SDS011;2117;47.972;7.830;2023-03-21T17:21:14;3.07;;;1.60;;
4206;SDS011;2117;47.972;7.830;2023-03-21T17:23:42;2.70;;;1.80;;